createdAt,value
2018-07-04T00:00:02.677Z,14.9
2018-07-04T00:05:01.791Z,14.8
2018-07-04T00:10:02.021Z,14.6
2018-07-04T00:15:01.993Z,14.5
2018-07-04T00:20:01.755Z,14.4
2018-07-04T00:25:01.996Z,14.3
2018-07-04T00:30:02.148Z,14.2
2018-07-04T00:35:01.694Z,14
2018-07-04T00:40:02.069Z,14
2018-07-04T00:45:02.125Z,13.9
2018-07-04T00:50:02.533Z,13.9
2018-07-04T00:55:01.731Z,13.8
2018-07-04T01:00:01.862Z,13.7
2018-07-04T01:05:01.623Z,13.7
2018-07-04T01:10:01.696Z,13.6
2018-07-04T01:15:02.152Z,13.4
2018-07-04T01:20:01.508Z,13.4
2018-07-04T01:25:01.944Z,13.4
2018-07-04T01:30:02.028Z,13.4
2018-07-04T01:35:02.368Z,13.4
2018-07-04T01:40:01.228Z,13.3
2018-07-04T01:45:01.211Z,13.3
2018-07-04T01:50:01.550Z,13.3
2018-07-04T01:55:01.486Z,13.3
2018-07-04T02:00:01.541Z,13.2
2018-07-04T02:05:01.475Z,13.2
2018-07-04T02:10:01.975Z,13.2
2018-07-04T02:15:01.995Z,13.1
2018-07-04T02:20:01.514Z,13.1
2018-07-04T02:25:02.383Z,13
2018-07-04T02:30:01.602Z,13
2018-07-04T02:35:02.135Z,12.9
2018-07-04T02:40:01.919Z,12.9
2018-07-04T02:45:02.264Z,12.8
2018-07-04T02:50:02.003Z,12.7
2018-07-04T02:55:01.647Z,12.6
2018-07-04T03:00:01.827Z,12.6
2018-07-04T03:05:02.167Z,12.6
2018-07-04T03:10:01.838Z,12.6
2018-07-04T03:15:01.679Z,12.5
2018-07-04T03:20:02.634Z,12.5
2018-07-04T03:25:01.398Z,12.5
2018-07-04T03:30:01.812Z,12.5
2018-07-04T03:35:01.765Z,12.5
2018-07-04T03:40:02.185Z,12.4
2018-07-04T03:45:01.846Z,12.4
2018-07-04T03:50:01.578Z,12.4
2018-07-04T03:55:01.914Z,12.4
2018-07-04T04:00:01.396Z,12.4
2018-07-04T04:05:02.184Z,12.5
2018-07-04T04:10:01.165Z,12.5
2018-07-04T04:15:01.900Z,12.6
2018-07-04T04:20:01.217Z,12.6
2018-07-04T04:25:01.431Z,12.7
2018-07-04T04:30:02.436Z,12.9
2018-07-04T04:35:01.798Z,12.9
2018-07-04T04:40:01.885Z,14.2
2018-07-04T04:45:01.323Z,15.3
2018-07-04T04:50:02.306Z,16.1
2018-07-04T04:55:01.178Z,16.2
2018-07-04T05:00:01.665Z,16.3
2018-07-04T05:05:01.496Z,16.2
2018-07-04T05:10:02.386Z,16
2018-07-04T05:15:01.394Z,16
2018-07-04T05:20:01.295Z,16
2018-07-04T05:25:01.483Z,15.9
2018-07-04T05:30:02.019Z,16
2018-07-04T05:35:02.086Z,15.9
2018-07-04T05:40:01.945Z,16
2018-07-04T05:45:01.559Z,16.1
2018-07-04T05:50:01.161Z,16.2
2018-07-04T05:55:01.489Z,16.4
2018-07-04T06:00:02.326Z,16.6
2018-07-04T06:05:01.484Z,16.7
2018-07-04T06:10:01.826Z,16.9
2018-07-04T06:15:01.872Z,17.3
2018-07-04T06:20:01.553Z,17.4
2018-07-04T06:25:01.236Z,17.7
2018-07-04T06:30:01.634Z,17.7
2018-07-04T06:35:01.889Z,18.2
2018-07-04T06:40:01.618Z,18.3
2018-07-04T06:45:01.882Z,18.7
2018-07-04T06:50:01.763Z,18.9
2018-07-04T06:55:01.752Z,19.2
2018-07-04T07:00:01.255Z,19.4
2018-07-04T07:05:01.796Z,19.4
2018-07-04T07:10:01.933Z,19.4
2018-07-04T07:15:01.212Z,19.6
2018-07-04T07:20:01.782Z,19.8
2018-07-04T07:25:02.084Z,19.9
2018-07-04T07:30:01.557Z,20.1
2018-07-04T07:35:01.826Z,20.5
2018-07-04T07:40:01.614Z,20.7
2018-07-04T07:45:01.694Z,20.7
2018-07-04T07:50:01.740Z,21
2018-07-04T07:55:01.188Z,21.1
2018-07-04T08:00:01.927Z,21.3
2018-07-04T08:05:02.016Z,21.5
2018-07-04T08:10:02.114Z,21.6
2018-07-04T08:15:01.389Z,21.8
2018-07-04T08:20:02.291Z,22
2018-07-04T08:25:01.256Z,22.1
2018-07-04T08:30:01.889Z,22.5
2018-07-04T08:35:01.383Z,22.9
2018-07-04T08:40:01.634Z,23.1
2018-07-04T08:45:01.544Z,23.3
2018-07-04T08:50:01.397Z,23.7
2018-07-04T08:55:01.844Z,23.8
2018-07-04T09:00:01.195Z,23.8
2018-07-04T09:05:01.184Z,24.2
2018-07-04T09:10:02.240Z,24.4
2018-07-04T09:15:02.005Z,24.6
2018-07-04T09:20:01.562Z,24.5
2018-07-04T09:25:01.538Z,24.7
2018-07-04T09:30:01.601Z,25
2018-07-04T09:35:01.903Z,25.5
2018-07-04T09:40:01.929Z,25.8
2018-07-04T09:45:02.100Z,25.7
2018-07-04T09:50:01.405Z,25.9
2018-07-04T09:55:01.792Z,26
2018-07-04T10:00:01.255Z,26.1
2018-07-04T10:05:02.507Z,26.3
2018-07-04T10:10:01.396Z,26.4
2018-07-04T10:15:01.194Z,26.8
2018-07-04T10:20:02.436Z,26.7
2018-07-04T10:25:01.964Z,26.8
2018-07-04T10:30:01.418Z,26.8
2018-07-04T10:35:01.301Z,27
2018-07-04T10:40:01.504Z,27
2018-07-04T10:45:01.910Z,27.5
2018-07-04T10:50:01.372Z,27.7
2018-07-04T10:55:01.663Z,27.9
2018-07-04T11:00:01.249Z,28.1
2018-07-04T11:05:01.216Z,28.1
2018-07-04T11:10:01.846Z,28.1
2018-07-04T11:15:02.176Z,28.2
2018-07-04T11:20:02.184Z,28.9
2018-07-04T11:25:01.352Z,28.9
2018-07-04T11:30:02.142Z,29
2018-07-04T11:35:01.229Z,28.9
2018-07-04T11:40:01.223Z,29.1
2018-07-04T11:45:01.816Z,29.4
2018-07-04T11:50:02.216Z,29.4
2018-07-04T11:55:01.947Z,29.8
2018-07-04T12:00:01.640Z,29.4
2018-07-04T12:05:01.887Z,29.4
2018-07-04T12:10:02.145Z,30.3
2018-07-04T12:15:01.518Z,30.3
2018-07-04T12:20:01.625Z,30.5
2018-07-04T12:25:02.190Z,30.6
2018-07-04T12:30:01.668Z,30.7
2018-07-04T12:35:01.517Z,30.7
2018-07-04T12:40:01.445Z,30.9
2018-07-04T12:45:02.024Z,30.6
2018-07-04T12:50:02.413Z,30.7
2018-07-04T12:55:01.495Z,31.2
2018-07-04T13:00:02.044Z,31.2
2018-07-04T13:05:01.543Z,31.3
2018-07-04T13:10:01.454Z,31.2
2018-07-04T13:15:01.204Z,31.6
2018-07-04T13:20:02.162Z,31.3
2018-07-04T13:25:02.115Z,31.4
2018-07-04T13:30:01.741Z,31
2018-07-04T13:35:01.670Z,31
2018-07-04T13:40:01.931Z,30
2018-07-04T13:45:01.672Z,29.5
2018-07-04T13:50:02.021Z,29
2018-07-04T13:55:01.308Z,28.7
2018-07-04T14:00:01.766Z,28.3
2018-07-04T14:05:01.841Z,28.1
2018-07-04T14:10:02.055Z,28
2018-07-04T14:15:02.328Z,27.6
2018-07-04T14:20:02.115Z,27.4
2018-07-04T14:25:01.699Z,27.5
2018-07-04T14:30:01.971Z,27.7
2018-07-04T14:35:02.020Z,27.7
2018-07-04T14:40:01.829Z,27.7
2018-07-04T14:45:01.529Z,27.5
2018-07-04T14:50:01.902Z,27.5
2018-07-04T14:55:02.099Z,26.8
2018-07-04T15:00:01.674Z,26.3
2018-07-04T15:05:01.888Z,26.4
2018-07-04T15:10:01.638Z,26.3
2018-07-04T15:15:01.397Z,26.2
2018-07-04T15:20:01.420Z,26.2
2018-07-04T15:25:02.076Z,26.3
2018-07-04T15:30:01.603Z,26.1
2018-07-04T15:35:02.045Z,25.6
2018-07-04T15:40:01.838Z,25.5
2018-07-04T15:45:01.559Z,25.4
2018-07-04T15:50:02.172Z,25.7
2018-07-04T15:55:02.136Z,25.5
2018-07-04T16:00:01.672Z,25.3
2018-07-04T16:05:01.805Z,24.8
2018-07-04T16:10:01.950Z,24.2
2018-07-04T16:15:01.453Z,24.2
2018-07-04T16:20:01.255Z,24.7
2018-07-04T16:25:02.535Z,25
2018-07-04T16:30:02.020Z,25.2
2018-07-04T16:35:01.356Z,24.8
2018-07-04T16:40:01.331Z,24.4
2018-07-04T16:45:02.012Z,24.4
2018-07-04T16:50:02.080Z,24.6
2018-07-04T16:55:01.826Z,24.4
2018-07-04T17:00:02.327Z,24.4
2018-07-04T17:05:01.629Z,24.5
2018-07-04T17:10:01.818Z,24.2
2018-07-04T17:15:01.577Z,23.7
2018-07-04T17:20:01.814Z,23.5
2018-07-04T17:25:01.704Z,23.4
2018-07-04T17:30:01.788Z,23.2
2018-07-04T17:35:02.174Z,23.2
2018-07-04T17:40:01.439Z,23
2018-07-04T17:45:02.230Z,22.7
2018-07-04T17:50:01.378Z,22.4
2018-07-04T17:55:02.188Z,22.2
2018-07-04T18:00:01.603Z,21.8
2018-07-04T18:05:01.836Z,21.5
2018-07-04T18:10:02.071Z,21.4
2018-07-04T18:15:02.914Z,21.2
2018-07-04T18:20:01.335Z,21.1
2018-07-04T18:25:01.287Z,21
2018-07-04T18:30:02.585Z,20.9
2018-07-04T18:35:02.016Z,20.9
2018-07-04T18:40:01.825Z,20.7
2018-07-04T18:45:02.256Z,20.6
2018-07-04T18:50:01.529Z,20.6
2018-07-04T18:55:02.162Z,20.7
2018-07-04T19:00:01.146Z,20.7
2018-07-04T19:05:02.217Z,20.7
2018-07-04T19:10:01.587Z,20.6
2018-07-04T19:15:02.006Z,20.7
2018-07-04T19:20:01.651Z,20.7
2018-07-04T19:25:02.406Z,20.7
2018-07-04T19:30:01.679Z,20.7
2018-07-04T19:35:02.507Z,20.6
2018-07-04T19:40:01.799Z,20.5
2018-07-04T19:45:01.360Z,20.5
2018-07-04T19:50:01.273Z,20.3
2018-07-04T19:55:02.155Z,20.2
2018-07-04T20:00:01.625Z,20.1
2018-07-04T20:05:02.542Z,19.8
2018-07-04T20:10:01.974Z,19.6
2018-07-04T20:15:01.207Z,19.5
2018-07-04T20:20:01.404Z,19.4
2018-07-04T20:25:01.745Z,19.3
2018-07-04T20:30:02.032Z,19.2
2018-07-04T20:35:01.897Z,19.1
2018-07-04T20:40:02.126Z,19
2018-07-04T20:45:01.598Z,18.9
2018-07-04T20:50:01.405Z,18.8
2018-07-04T20:55:01.473Z,18.7
2018-07-04T21:00:02.056Z,18.5
2018-07-04T21:05:02.160Z,18.5
2018-07-04T21:10:01.177Z,18.3
2018-07-04T21:15:02.336Z,18.3
2018-07-04T21:20:01.541Z,18.2
2018-07-04T21:25:01.382Z,18.1
2018-07-04T21:30:02.076Z,18
2018-07-04T21:35:02.046Z,18
2018-07-04T21:40:01.213Z,17.8
2018-07-04T21:45:01.841Z,17.8
2018-07-04T21:50:02.130Z,17.7
2018-07-04T21:55:01.952Z,17.6
2018-07-04T22:00:01.658Z,17.6
2018-07-04T22:05:02.030Z,17.5
2018-07-04T22:10:03.142Z,17.4
2018-07-04T22:15:01.501Z,17.3
2018-07-04T22:20:01.260Z,17.2
2018-07-04T22:25:01.217Z,17.1
2018-07-04T22:30:02.293Z,17.1
2018-07-04T22:35:02.008Z,17
2018-07-04T22:40:02.132Z,16.9
2018-07-04T22:45:01.191Z,16.9
2018-07-04T22:50:02.221Z,16.7
2018-07-04T22:55:01.741Z,16.7
2018-07-04T23:00:01.713Z,16.6
2018-07-04T23:05:01.716Z,16.6
2018-07-04T23:10:02.128Z,16.5
2018-07-04T23:15:02.001Z,16.4
2018-07-04T23:20:01.533Z,16.4
2018-07-04T23:25:01.219Z,16.4
2018-07-04T23:30:01.465Z,16.4
2018-07-04T23:35:01.817Z,16.3
2018-07-04T23:40:01.746Z,16.3
2018-07-04T23:45:01.974Z,16.3
2018-07-04T23:50:02.114Z,16.5
2018-07-04T23:55:01.225Z,16.4
